createdAt,value
2022-12-08T00:01:06.444Z,96631.41
2022-12-08T00:02:08.184Z,96638.31
2022-12-08T00:03:10.072Z,96635.09
2022-12-08T00:04:11.702Z,96627.19
2022-12-08T00:05:31.913Z,96637.75
2022-12-08T00:06:58.049Z,96630.34
2022-12-08T00:08:17.894Z,96636.75
2022-12-08T00:09:39.917Z,96640.53
2022-12-08T00:10:49.708Z,96645.56
2022-12-08T00:11:57.395Z,96647.94
2022-12-08T00:12:58.990Z,96646.69
2022-12-08T00:14:00.924Z,96643.56
2022-12-08T00:15:03.252Z,96637.44
2022-12-08T00:16:05.119Z,96642.81
2022-12-08T00:17:08.158Z,96650.50
2022-12-08T00:18:09.785Z,96651.19
2022-12-08T00:19:11.381Z,96651.09
2022-12-08T00:20:12.879Z,96647.16
2022-12-08T00:21:14.496Z,96654.09
2022-12-08T00:22:16.021Z,96650.31
2022-12-08T00:23:18.257Z,96650.41
2022-12-08T00:24:21.118Z,96655.31
2022-12-08T00:25:22.682Z,96657.25
2022-12-08T00:26:24.369Z,96654.81
2022-12-08T00:27:25.899Z,96650.56
2022-12-08T00:28:27.446Z,96651.03
2022-12-08T00:29:29.128Z,96655.28
2022-12-08T00:30:30.688Z,96659.50
2022-12-08T00:31:32.357Z,96655.59
2022-12-08T00:32:33.902Z,96654.03
2022-12-08T00:33:36.926Z,96653.09
2022-12-08T00:34:38.476Z,96653.66
2022-12-08T00:35:43.047Z,96654.19
2022-12-08T00:36:45.319Z,96655.88
2022-12-08T00:37:46.858Z,96657.44
2022-12-08T00:38:48.709Z,96657.44
2022-12-08T00:39:50.369Z,96656.97
2022-12-08T00:40:51.941Z,96657.97
2022-12-08T00:42:12.110Z,96650.41
2022-12-08T00:43:14.719Z,96657.75
2022-12-08T00:44:21.432Z,96649.38
2022-12-08T00:45:23.005Z,96658.56
2022-12-08T00:46:24.581Z,96659.75
2022-12-08T00:47:26.154Z,96659.22
2022-12-08T00:48:27.742Z,96656.88
2022-12-08T00:49:29.263Z,96659.00
2022-12-08T00:50:30.833Z,96668.41
2022-12-08T00:51:33.053Z,96669.84
2022-12-08T00:52:34.902Z,96670.63
2022-12-08T00:53:36.423Z,96672.41
2022-12-08T00:54:38.055Z,96663.47
2022-12-08T00:55:39.565Z,96664.28
2022-12-08T00:56:41.145Z,96668.66
2022-12-08T00:57:42.726Z,96667.06
2022-12-08T00:58:44.301Z,96676.25
2022-12-08T00:59:45.892Z,96674.91
2022-12-08T01:00:47.552Z,96666.00
2022-12-08T01:01:49.456Z,96671.59
2022-12-08T01:02:51.120Z,96666.00
2022-12-08T01:03:53.018Z,96669.19
2022-12-08T01:04:54.581Z,96659.44
2022-12-08T01:05:56.088Z,96662.44
2022-12-08T01:06:57.603Z,96661.44
2022-12-08T01:07:59.248Z,96658.72
2022-12-08T01:09:02.231Z,96655.56
2022-12-08T01:10:04.343Z,96655.84
2022-12-08T01:11:08.187Z,96648.94
2022-12-08T01:12:09.920Z,96652.41
2022-12-08T01:13:11.485Z,96653.19
2022-12-08T01:14:13.818Z,96654.31
2022-12-08T01:15:15.590Z,96651.28
2022-12-08T01:16:26.538Z,96650.09
2022-12-08T01:17:28.141Z,96654.44
2022-12-08T01:18:30.307Z,96652.31
2022-12-08T01:19:31.928Z,96650.09
2022-12-08T01:20:33.439Z,96647.88
2022-12-08T01:21:35.016Z,96650.34
2022-12-08T01:22:36.624Z,96657.06
2022-12-08T01:23:38.213Z,96661.28
2022-12-08T01:24:39.726Z,96648.78
2022-12-08T01:25:41.402Z,96643.31
2022-12-08T01:26:43.471Z,96650.09
2022-12-08T01:27:45.039Z,96647.09
2022-12-08T01:28:47.551Z,96647.44
2022-12-08T01:29:49.077Z,96650.69
2022-12-08T01:30:50.648Z,96650.16
2022-12-08T01:31:52.222Z,96652.47
2022-12-08T01:32:53.727Z,96653.91
2022-12-08T01:33:55.317Z,96654.09
2022-12-08T01:34:56.835Z,96654.31
2022-12-08T01:36:05.342Z,96655.66
2022-12-08T01:37:07.658Z,96656.09
2022-12-08T01:38:09.219Z,96646.44
2022-12-08T01:39:15.713Z,96650.22
2022-12-08T01:40:17.675Z,96650.47
2022-12-08T01:41:22.610Z,96648.16
2022-12-08T01:42:25.448Z,96642.69
2022-12-08T01:44:05.930Z,96644.50
2022-12-08T01:45:15.275Z,96652.63
2022-12-08T01:46:16.839Z,96647.34
2022-12-08T01:47:18.606Z,96642.41
2022-12-08T01:48:27.234Z,96641.06
2022-12-08T01:49:33.005Z,96636.81
2022-12-08T01:50:35.563Z,96642.28
2022-12-08T01:51:44.182Z,96642.19
2022-12-08T01:52:56.286Z,96635.28
2022-12-08T01:53:58.043Z,96628.53
2022-12-08T01:55:05.686Z,96638.56
2022-12-08T01:56:13.335Z,96638.97
2022-12-08T01:57:22.876Z,96643.16
2022-12-08T01:58:33.226Z,96641.75
2022-12-08T01:59:39.279Z,96648.56
2022-12-08T02:00:40.951Z,96643.09
2022-12-08T02:01:42.640Z,96645.63
2022-12-08T02:02:49.970Z,96650.19
2022-12-08T02:04:02.899Z,96638.19
2022-12-08T02:05:06.640Z,96641.38
2022-12-08T02:06:08.644Z,96643.09
2022-12-08T02:07:13.236Z,96633.16
2022-12-08T02:08:15.247Z,96638.97
2022-12-08T02:09:16.899Z,96640.22
2022-12-08T02:10:21.091Z,96647.59
2022-12-08T02:11:22.696Z,96638.00
2022-12-08T02:12:24.501Z,96635.19
2022-12-08T02:13:26.318Z,96634.84
2022-12-08T02:14:28.102Z,96635.53
2022-12-08T02:16:01.764Z,96641.28
2022-12-08T02:17:34.351Z,96636.78
2022-12-08T02:18:53.743Z,96635.22
2022-12-08T02:20:37.944Z,96631.63
2022-12-08T02:21:58.216Z,96630.09
2022-12-08T02:23:02.751Z,96626.44
2022-12-08T02:24:17.640Z,96628.16
2022-12-08T02:25:44.210Z,96629.41
2022-12-08T02:27:04.113Z,96629.19
2022-12-08T02:28:24.094Z,96633.38
2022-12-08T02:29:43.940Z,96624.81
2022-12-08T02:31:24.153Z,96631.41
2022-12-08T02:32:37.815Z,96626.81
2022-12-08T02:33:58.205Z,96629.97
2022-12-08T02:35:13.623Z,96617.81
2022-12-08T02:36:24.165Z,96616.59
2022-12-08T02:37:32.975Z,96625.94
2022-12-08T02:38:48.916Z,96619.56
2022-12-08T02:40:02.035Z,96615.50
2022-12-08T02:41:06.726Z,96609.69
2022-12-08T02:42:11.259Z,96610.94
2022-12-08T02:43:22.225Z,96615.38
2022-12-08T02:44:58.043Z,96613.03
2022-12-08T02:46:04.755Z,96616.28
2022-12-08T02:47:16.882Z,96607.59
2022-12-08T02:48:18.470Z,96619.22
2022-12-08T02:49:20.193Z,96609.88
2022-12-08T02:50:21.711Z,96615.69
2022-12-08T02:51:23.379Z,96620.56
2022-12-08T02:52:24.947Z,96619.66
2022-12-08T02:53:30.352Z,96614.41
2022-12-08T02:54:32.544Z,96617.09
2022-12-08T02:55:48.609Z,96621.25
2022-12-08T02:57:08.105Z,96611.03
2022-12-08T02:58:30.105Z,96614.88
2022-12-08T03:00:08.893Z,96615.69
2022-12-08T03:01:40.715Z,96618.28
2022-12-08T03:03:04.095Z,96606.66
2022-12-08T03:04:40.796Z,96613.25
2022-12-08T03:06:06.655Z,96612.56
2022-12-08T03:07:12.589Z,96624.09
2022-12-08T03:08:41.078Z,96618.81
2022-12-08T03:09:50.535Z,96618.75
2022-12-08T03:11:08.786Z,96624.22
2022-12-08T03:12:23.523Z,96619.53
2022-12-08T03:13:42.249Z,96622.03
2022-12-08T03:14:51.065Z,96616.63
2022-12-08T03:15:55.474Z,96619.38
2022-12-08T03:16:59.524Z,96619.09
2022-12-08T03:18:01.070Z,96622.44
2022-12-08T03:19:14.724Z,96622.63
2022-12-08T03:20:20.844Z,96612.91
2022-12-08T03:21:23.234Z,96617.47
2022-12-08T03:22:27.642Z,96609.16
2022-12-08T03:23:30.779Z,96612.50
2022-12-08T03:24:36.766Z,96617.84
2022-12-08T03:25:43.560Z,96612.50
2022-12-08T03:27:14.011Z,96614.97
2022-12-08T03:28:15.727Z,96613.53
2022-12-08T03:29:18.173Z,96611.00
2022-12-08T03:30:19.872Z,96610.34
2022-12-08T03:31:25.423Z,96617.59
2022-12-08T03:32:37.334Z,96621.69
2022-12-08T03:33:43.889Z,96615.41
2022-12-08T03:34:48.124Z,96616.09
2022-12-08T03:35:50.728Z,96621.75
2022-12-08T03:36:52.425Z,96618.09
2022-12-08T03:38:09.437Z,96623.06
2022-12-08T03:39:11.424Z,96617.31
2022-12-08T03:40:17.133Z,96620.59
2022-12-08T03:41:19.533Z,96622.28
2022-12-08T03:42:21.126Z,96615.03
2022-12-08T03:43:22.677Z,96615.63
2022-12-08T03:44:24.275Z,96626.59
2022-12-08T03:45:25.902Z,96627.03
2022-12-08T03:47:30.321Z,96618.41
2022-12-08T03:48:31.819Z,96612.19
2022-12-08T03:49:33.453Z,96619.91
2022-12-08T03:50:34.964Z,96616.78
2022-12-08T03:51:36.616Z,96618.34
2022-12-08T03:52:38.126Z,96612.84
2022-12-08T03:53:39.918Z,96612.41
2022-12-08T03:54:41.495Z,96620.75
2022-12-08T03:55:43.215Z,96606.38
2022-12-08T03:56:44.808Z,96614.22
2022-12-08T03:57:46.407Z,96613.22
2022-12-08T03:58:47.947Z,96607.34
2022-12-08T03:59:49.568Z,96613.25
2022-12-08T04:00:51.552Z,96606.28
2022-12-08T04:01:53.157Z,96617.66
2022-12-08T04:02:54.797Z,96616.78
2022-12-08T04:03:56.633Z,96613.88
2022-12-08T04:04:58.167Z,96613.22
2022-12-08T04:05:59.689Z,96613.00
2022-12-08T04:07:01.306Z,96620.84
2022-12-08T04:08:02.964Z,96615.25
2022-12-08T04:09:04.622Z,96623.06
2022-12-08T04:10:06.964Z,96612.59
2022-12-08T04:11:08.924Z,96622.19
2022-12-08T04:12:10.537Z,96616.63
2022-12-08T04:13:12.114Z,96618.53
2022-12-08T04:14:13.664Z,96615.59
2022-12-08T04:15:15.198Z,96619.94
2022-12-08T04:16:24.132Z,96623.97
2022-12-08T04:17:25.844Z,96619.53
2022-12-08T04:18:27.392Z,96626.13
2022-12-08T04:19:29.295Z,96623.56
2022-12-08T04:20:30.822Z,96629.81
2022-12-08T04:21:32.868Z,96621.06
2022-12-08T04:22:34.456Z,96626.56
2022-12-08T04:23:36.506Z,96623.22
2022-12-08T04:24:38.059Z,96624.09
2022-12-08T04:25:39.627Z,96619.97
2022-12-08T04:26:41.237Z,96624.66
2022-12-08T04:27:42.856Z,96627.78
2022-12-08T04:28:44.521Z,96617.53
2022-12-08T04:29:46.113Z,96617.53
2022-12-08T04:30:48.874Z,96619.06
2022-12-08T04:31:50.492Z,96626.09
2022-12-08T04:32:52.055Z,96619.28
2022-12-08T04:33:53.623Z,96613.59
2022-12-08T04:34:55.613Z,96615.59
2022-12-08T04:35:57.374Z,96618.72
2022-12-08T04:36:58.930Z,96621.50
2022-12-08T04:38:00.515Z,96622.38
2022-12-08T04:39:02.069Z,96613.69
2022-12-08T04:40:04.198Z,96620.59
2022-12-08T04:41:06.198Z,96609.09
2022-12-08T04:42:07.757Z,96608.75
2022-12-08T04:43:09.341Z,96615.69
2022-12-08T04:44:10.893Z,96612.13
2022-12-08T04:45:12.433Z,96619.16
2022-12-08T04:46:14.193Z,96614.81
2022-12-08T04:47:15.896Z,96624.88
2022-12-08T04:48:17.892Z,96624.66
2022-12-08T04:49:19.527Z,96633.16
2022-12-08T04:50:21.053Z,96628.69
2022-12-08T04:51:22.621Z,96625.09
2022-12-08T04:52:24.449Z,96638.06
2022-12-08T04:53:27.239Z,96631.81
2022-12-08T04:54:31.416Z,96627.13
2022-12-08T04:55:32.965Z,96628.13
2022-12-08T04:56:34.660Z,96630.47
2022-12-08T04:57:36.197Z,96624.44
2022-12-08T04:58:38.010Z,96639.53
2022-12-08T04:59:39.567Z,96634.69
2022-12-08T05:00:41.847Z,96640.59
2022-12-08T05:01:43.529Z,96643.38
2022-12-08T05:02:45.295Z,96635.19
2022-12-08T05:03:46.882Z,96637.84
2022-12-08T05:04:48.430Z,96635.63
2022-12-08T05:05:50.005Z,96640.19
2022-12-08T05:06:51.593Z,96633.88
2022-12-08T05:07:53.184Z,96641.47
2022-12-08T05:08:54.970Z,96641.41
2022-12-08T05:09:56.555Z,96646.22
2022-12-08T05:11:06.360Z,96639.50
2022-12-08T05:12:07.996Z,96637.75
2022-12-08T05:13:09.818Z,96641.28
2022-12-08T05:14:13.151Z,96643.06
2022-12-08T05:15:14.826Z,96639.72
2022-12-08T05:16:16.835Z,96642.41
2022-12-08T05:17:19.232Z,96631.59
2022-12-08T05:18:20.846Z,96645.28
2022-12-08T05:19:22.624Z,96633.25
2022-12-08T05:20:24.127Z,96639.66
2022-12-08T05:21:26.933Z,96640.66
2022-12-08T05:22:28.571Z,96640.00
2022-12-08T05:23:30.198Z,96638.56
2022-12-08T05:24:31.757Z,96644.69
2022-12-08T05:25:33.293Z,96640.69
2022-12-08T05:26:34.872Z,96645.94
2022-12-08T05:27:36.955Z,96646.03
2022-12-08T05:28:41.966Z,96645.53
2022-12-08T05:29:44.618Z,96643.75
2022-12-08T05:30:46.514Z,96642.63
2022-12-08T05:31:48.111Z,96647.88
2022-12-08T05:32:49.751Z,96655.25
2022-12-08T05:33:52.184Z,96649.78
2022-12-08T05:34:53.852Z,96651.53
2022-12-08T05:35:55.434Z,96647.84
2022-12-08T05:36:57.020Z,96646.91
2022-12-08T05:37:58.592Z,96651.47
2022-12-08T05:39:00.157Z,96647.66
2022-12-08T05:40:02.094Z,96652.88
2022-12-08T05:41:04.100Z,96661.75
2022-12-08T05:42:06.251Z,96658.84
2022-12-08T05:43:07.845Z,96665.53
2022-12-08T05:44:09.357Z,96668.19
2022-12-08T05:45:11.182Z,96663.47
2022-12-08T05:46:13.498Z,96664.41
2022-12-08T05:47:15.095Z,96662.44
2022-12-08T05:48:16.869Z,96667.25
2022-12-08T05:49:18.532Z,96664.91
2022-12-08T05:50:20.079Z,96662.66
2022-12-08T05:51:24.200Z,96664.78
2022-12-08T05:52:25.708Z,96670.66
2022-12-08T05:53:27.266Z,96678.38
2022-12-08T05:54:28.827Z,96674.56
2022-12-08T05:55:30.453Z,96676.66
2022-12-08T05:56:32.053Z,96678.41
2022-12-08T05:57:33.591Z,96680.34
2022-12-08T05:58:35.131Z,96678.78
2022-12-08T05:59:37.603Z,96686.81
2022-12-08T06:00:39.213Z,96687.00
2022-12-08T06:01:40.843Z,96683.88
2022-12-08T06:02:42.682Z,96677.25
2022-12-08T06:03:44.378Z,96674.59
2022-12-08T06:04:45.926Z,96677.84
2022-12-08T06:05:47.843Z,96678.31
2022-12-08T06:06:49.541Z,96679.91
2022-12-08T06:07:51.182Z,96690.59
2022-12-08T06:08:53.361Z,96679.19
2022-12-08T06:09:54.942Z,96687.66
2022-12-08T06:10:56.480Z,96682.41
2022-12-08T06:11:58.027Z,96681.91
2022-12-08T06:12:59.945Z,96681.25
2022-12-08T06:14:02.124Z,96685.28
2022-12-08T06:15:04.152Z,96688.53
2022-12-08T06:16:06.967Z,96690.25
2022-12-08T06:17:08.595Z,96681.78
2022-12-08T06:18:10.925Z,96690.91
2022-12-08T06:19:12.497Z,96680.88
2022-12-08T06:20:14.129Z,96686.22
2022-12-08T06:21:16.816Z,96691.81
2022-12-08T06:22:18.372Z,96689.72
2022-12-08T06:23:19.891Z,96693.66
2022-12-08T06:24:21.412Z,96695.66
2022-12-08T06:25:24.071Z,96694.44
2022-12-08T06:26:29.034Z,96694.28
2022-12-08T06:27:30.560Z,96701.22
2022-12-08T06:28:32.874Z,96699.63
2022-12-08T06:29:34.386Z,96696.75
2022-12-08T06:30:37.852Z,96700.69
2022-12-08T06:31:39.538Z,96700.03
2022-12-08T06:32:41.278Z,96708.38
2022-12-08T06:33:43.142Z,96699.91
2022-12-08T06:34:44.830Z,96699.91
2022-12-08T06:35:46.349Z,96707.25
2022-12-08T06:36:47.994Z,96700.34
2022-12-08T06:37:51.700Z,96706.84
2022-12-08T06:38:53.290Z,96703.94
2022-12-08T06:39:54.861Z,96708.00
2022-12-08T06:40:57.860Z,96709.53
2022-12-08T06:42:17.807Z,96702.97
2022-12-08T06:43:19.309Z,96704.59
2022-12-08T06:44:20.910Z,96703.16
2022-12-08T06:45:22.443Z,96704.38
2022-12-08T06:46:24.341Z,96705.50
2022-12-08T06:47:26.419Z,96701.47
2022-12-08T06:48:28.147Z,96698.81
2022-12-08T06:49:29.658Z,96708.38
2022-12-08T06:50:32.632Z,96698.34
2022-12-08T06:51:34.158Z,96702.13
2022-12-08T06:52:43.002Z,96705.47
2022-12-08T06:53:47.526Z,96695.88
2022-12-08T06:54:49.060Z,96706.56
2022-12-08T06:56:00.795Z,96701.22
2022-12-08T06:57:02.327Z,96702.13
2022-12-08T06:58:03.978Z,96705.50
2022-12-08T06:59:05.474Z,96691.25
2022-12-08T07:00:08.187Z,96703.13
2022-12-08T07:01:12.158Z,96705.72
2022-12-08T07:02:13.804Z,96704.28
2022-12-08T07:03:15.574Z,96706.97
2022-12-08T07:04:17.379Z,96694.34
2022-12-08T07:05:18.958Z,96706.28
2022-12-08T07:06:23.241Z,96694.59
2022-12-08T07:07:24.891Z,96695.69
2022-12-08T07:08:26.612Z,96694.69
2022-12-08T07:09:28.540Z,96695.84
2022-12-08T07:10:30.230Z,96695.44
2022-12-08T07:11:31.746Z,96696.91
2022-12-08T07:12:33.303Z,96696.03
2022-12-08T07:13:34.833Z,96696.25
2022-12-08T07:14:36.386Z,96699.16
2022-12-08T07:15:37.896Z,96696.72
2022-12-08T07:16:39.600Z,96699.59
2022-12-08T07:17:41.163Z,96703.16
2022-12-08T07:18:44.011Z,96703.72
2022-12-08T07:19:45.639Z,96701.59
2022-12-08T07:20:47.182Z,96699.94
2022-12-08T07:21:48.838Z,96706.63
2022-12-08T07:22:51.232Z,96708.75
2022-12-08T07:23:57.421Z,96707.38
2022-12-08T07:24:59.523Z,96707.28
2022-12-08T07:26:02.758Z,96710.16
2022-12-08T07:27:04.475Z,96712.19
2022-12-08T07:28:11.012Z,96715.28
2022-12-08T07:29:12.707Z,96707.63
2022-12-08T07:30:15.010Z,96714.69
2022-12-08T07:31:19.875Z,96716.69
2022-12-08T07:32:21.537Z,96716.00
2022-12-08T07:33:23.161Z,96708.06
2022-12-08T07:34:24.725Z,96712.75
2022-12-08T07:35:26.436Z,96722.78
2022-12-08T07:36:28.075Z,96708.25
2022-12-08T07:37:29.598Z,96712.94
2022-12-08T07:38:31.412Z,96710.03
2022-12-08T07:39:32.975Z,96713.16
2022-12-08T07:40:34.639Z,96719.41
2022-12-08T07:41:36.147Z,96708.06
2022-12-08T07:42:37.708Z,96720.22
2022-12-08T07:43:39.341Z,96716.00
2022-12-08T07:44:40.904Z,96723.03
2022-12-08T07:45:42.731Z,96717.03
2022-12-08T07:46:44.378Z,96719.47
2022-12-08T07:47:46.028Z,96712.56
2022-12-08T07:48:48.013Z,96720.16
2022-12-08T07:49:49.603Z,96710.28
2022-12-08T07:50:51.278Z,96711.16
2022-12-08T07:51:52.845Z,96713.31
2022-12-08T07:52:54.373Z,96715.66
2022-12-08T07:53:55.969Z,96716.44
2022-12-08T07:54:57.491Z,96716.13
2022-12-08T07:55:59.322Z,96717.44
2022-12-08T07:57:01.005Z,96715.34
2022-12-08T07:58:02.616Z,96714.56
2022-12-08T07:59:04.524Z,96721.97
2022-12-08T08:00:07.104Z,96718.75
2022-12-08T08:01:20.208Z,96722.59
2022-12-08T08:02:24.719Z,96714.09
2022-12-08T08:03:27.206Z,96723.28
2022-12-08T08:04:28.840Z,96729.19
2022-12-08T08:05:30.558Z,96715.94
2022-12-08T08:06:33.655Z,96726.00
2022-12-08T08:07:35.362Z,96724.59
2022-12-08T08:08:36.898Z,96716.19
2022-12-08T08:09:38.667Z,96723.56
2022-12-08T08:10:40.230Z,96728.06
2022-12-08T08:11:41.842Z,96730.56
2022-12-08T08:12:43.407Z,96736.97
2022-12-08T08:13:44.999Z,96729.63
2022-12-08T08:14:46.545Z,96733.63
2022-12-08T08:15:48.286Z,96739.13
2022-12-08T08:16:50.028Z,96736.16
2022-12-08T08:17:52.243Z,96734.75
2022-12-08T08:18:54.238Z,96739.50
2022-12-08T08:19:55.942Z,96737.59
2022-12-08T08:21:06.714Z,96739.66
2022-12-08T08:22:19.509Z,96736.72
2022-12-08T08:23:21.090Z,96738.16
2022-12-08T08:24:24.148Z,96735.19
2022-12-08T08:25:25.738Z,96737.28
2022-12-08T08:26:27.291Z,96731.34
2022-12-08T08:27:28.916Z,96734.69
2022-12-08T08:28:30.496Z,96734.19
2022-12-08T08:29:32.122Z,96723.66
2022-12-08T08:30:33.655Z,96725.94
2022-12-08T08:31:35.377Z,96727.94
2022-12-08T08:32:37.683Z,96720.00
2022-12-08T08:33:39.289Z,96725.66
2022-12-08T08:34:40.912Z,96721.69
2022-12-08T08:35:42.533Z,96721.41
2022-12-08T08:36:44.131Z,96723.81
2022-12-08T08:37:48.821Z,96714.72
2022-12-08T08:38:51.148Z,96720.81
2022-12-08T08:39:53.205Z,96721.41
2022-12-08T08:40:54.774Z,96717.88
2022-12-08T08:41:56.333Z,96714.53
2022-12-08T08:42:57.906Z,96723.22
2022-12-08T08:43:59.510Z,96717.88
2022-12-08T08:45:01.124Z,96712.81
2022-12-08T08:46:03.664Z,96720.03
2022-12-08T08:47:05.301Z,96712.91
2022-12-08T08:48:07.366Z,96717.56
2022-12-08T08:49:08.937Z,96719.31
2022-12-08T08:50:10.647Z,96714.03
2022-12-08T08:51:14.130Z,96714.47
2022-12-08T08:52:15.723Z,96711.81
2022-12-08T08:53:17.258Z,96716.25
2022-12-08T08:54:18.816Z,96710.75
2022-12-08T08:55:20.418Z,96713.53
2022-12-08T08:56:22.460Z,96714.47
2022-12-08T08:57:25.992Z,96710.38
2022-12-08T08:58:27.831Z,96715.88
2022-12-08T08:59:29.498Z,96710.34
2022-12-08T09:00:31.140Z,96711.91
2022-12-08T09:01:32.796Z,96712.47
2022-12-08T09:03:04.425Z,96707.34
2022-12-08T09:04:06.072Z,96706.78
2022-12-08T09:05:08.145Z,96698.34
2022-12-08T09:06:09.843Z,96696.34
2022-12-08T09:07:11.902Z,96697.66
2022-12-08T09:08:13.590Z,96699.63
2022-12-08T09:09:16.586Z,96690.00
2022-12-08T09:10:18.210Z,96701.41
2022-12-08T09:11:20.299Z,96685.50
2022-12-08T09:12:21.806Z,96686.44
2022-12-08T09:13:23.639Z,96685.59
2022-12-08T09:14:25.477Z,96685.53
2022-12-08T09:15:27.165Z,96683.19
2022-12-08T09:16:28.856Z,96674.41
2022-12-08T09:17:30.554Z,96680.41
2022-12-08T09:18:32.703Z,96677.38
2022-12-08T09:19:34.628Z,96675.69
2022-12-08T09:20:36.157Z,96671.44
2022-12-08T09:21:39.444Z,96675.69
2022-12-08T09:22:41.030Z,96672.91
2022-12-08T09:23:43.720Z,96673.91
2022-12-08T09:24:45.247Z,96670.22
2022-12-08T09:25:47.381Z,96671.78
2022-12-08T09:26:48.944Z,96672.63
2022-12-08T09:27:50.499Z,96672.72
2022-12-08T09:28:53.841Z,96674.34
2022-12-08T09:29:55.400Z,96683.63
2022-12-08T09:30:57.064Z,96680.03
2022-12-08T09:31:58.736Z,96678.41
2022-12-08T09:33:00.334Z,96673.63
2022-12-08T09:34:02.040Z,96675.69
2022-12-08T09:35:03.910Z,96670.38
2022-12-08T09:36:06.011Z,96680.88
2022-12-08T09:37:07.622Z,96664.50
2022-12-08T09:38:09.172Z,96664.91
2022-12-08T09:39:10.744Z,96660.31
2022-12-08T09:40:18.604Z,96665.34
2022-12-08T09:41:43.352Z,96661.72
2022-12-08T09:42:53.134Z,96667.53
2022-12-08T09:44:02.656Z,96665.25
2022-12-08T09:45:06.703Z,96655.91
2022-12-08T09:46:11.191Z,96660.88
2022-12-08T09:47:29.490Z,96659.22
2022-12-08T09:48:43.177Z,96658.31
2022-12-08T09:49:52.449Z,96657.53
2022-12-08T09:50:58.360Z,96648.53
2022-12-08T09:52:00.444Z,96653.22
2022-12-08T09:53:25.960Z,96649.25
2022-12-08T09:54:34.965Z,96642.28
2022-12-08T09:55:56.784Z,96648.81
2022-12-08T09:57:01.308Z,96645.84
2022-12-08T09:58:04.985Z,96646.13
2022-12-08T09:59:23.884Z,96643.84
2022-12-08T10:00:25.532Z,96637.78
2022-12-08T10:01:30.152Z,96637.63
2022-12-08T10:02:32.291Z,96635.28
2022-12-08T10:03:33.824Z,96633.81
2022-12-08T10:04:38.291Z,96631.50
2022-12-08T10:05:49.765Z,96633.09
2022-12-08T10:07:30.792Z,96633.09
2022-12-08T10:08:47.195Z,96637.00
2022-12-08T10:10:19.573Z,96635.78
2022-12-08T10:11:32.298Z,96634.66
2022-12-08T10:12:52.301Z,96635.22
2022-12-08T10:14:08.967Z,96628.69
2022-12-08T10:15:19.305Z,96629.66
2022-12-08T10:16:36.811Z,96631.06
2022-12-08T10:17:46.059Z,96633.31
2022-12-08T10:18:55.822Z,96624.13
2022-12-08T10:20:02.150Z,96624.66
2022-12-08T10:21:20.524Z,96627.41
2022-12-08T10:22:25.790Z,96629.25
2022-12-08T10:23:35.919Z,96627.34
2022-12-08T10:24:46.456Z,96626.69
2022-12-08T10:25:56.659Z,96623.72
2022-12-08T10:26:58.596Z,96627.69
2022-12-08T10:28:00.323Z,96625.44
2022-12-08T10:29:02.945Z,96633.22
2022-12-08T10:30:15.706Z,96624.94
2022-12-08T10:31:20.296Z,96620.31
2022-12-08T10:32:24.296Z,96619.34
2022-12-08T10:33:25.836Z,96612.94
2022-12-08T10:34:27.489Z,96604.06
2022-12-08T10:35:49.532Z,96616.91
2022-12-08T10:36:56.802Z,96615.47
2022-12-08T10:38:01.484Z,96605.66
2022-12-08T10:39:03.121Z,96610.63
2022-12-08T10:40:14.075Z,96599.50
2022-12-08T10:41:18.242Z,96615.59
2022-12-08T10:42:22.228Z,96602.41
2022-12-08T10:43:27.740Z,96612.78
2022-12-08T10:44:29.536Z,96608.63
2022-12-08T10:45:38.182Z,96594.88
2022-12-08T10:46:39.843Z,96599.03
2022-12-08T10:47:45.313Z,96591.47
2022-12-08T10:49:07.513Z,96590.63
2022-12-08T10:50:30.738Z,96597.75
2022-12-08T10:51:37.617Z,96597.16
2022-12-08T10:52:40.487Z,96600.16
2022-12-08T10:53:46.648Z,96597.75
2022-12-08T10:54:54.002Z,96597.03
2022-12-08T10:56:01.460Z,96588.63
2022-12-08T10:57:03.156Z,96592.16
2022-12-08T10:58:04.744Z,96591.88
2022-12-08T10:59:06.252Z,96586.19
2022-12-08T11:00:14.409Z,96574.16
2022-12-08T11:01:28.151Z,96580.09
2022-12-08T11:02:29.903Z,96587.44
2022-12-08T11:03:36.285Z,96584.44
2022-12-08T11:04:38.389Z,96590.53
2022-12-08T11:05:41.949Z,96585.00
2022-12-08T11:06:44.387Z,96590.13
2022-12-08T11:07:51.661Z,96589.75
2022-12-08T11:08:59.342Z,96595.72
2022-12-08T11:10:01.021Z,96594.13
2022-12-08T11:11:02.551Z,96595.72
2022-12-08T11:12:18.451Z,96593.34
2022-12-08T11:13:26.505Z,96593.03
2022-12-08T11:14:31.539Z,96596.44
2022-12-08T11:15:39.174Z,96592.41
2022-12-08T11:16:43.062Z,96585.69
2022-12-08T11:17:48.699Z,96585.25
2022-12-08T11:18:58.436Z,96589.13
2022-12-08T11:20:20.749Z,96575.22
2022-12-08T11:21:34.330Z,96573.94
2022-12-08T11:22:46.876Z,96580.47
2022-12-08T11:23:50.580Z,96571.25
2022-12-08T11:25:07.339Z,96571.25
2022-12-08T11:26:15.791Z,96579.03
2022-12-08T11:27:17.438Z,96574.78
2022-12-08T11:28:24.323Z,96575.22
2022-12-08T11:29:28.273Z,96574.09
2022-12-08T11:30:35.202Z,96571.50
2022-12-08T11:31:52.047Z,96569.09
2022-12-08T11:32:57.506Z,96557.97
2022-12-08T11:33:59.192Z,96565.13
2022-12-08T11:35:07.031Z,96567.63
2022-12-08T11:36:14.546Z,96565.75
2022-12-08T11:37:28.617Z,96562.66
2022-12-08T11:38:35.389Z,96557.69
2022-12-08T11:39:44.344Z,96562.22
2022-12-08T11:40:46.168Z,96561.50
2022-12-08T11:41:48.954Z,96559.69
2022-12-08T11:42:55.453Z,96557.69
2022-12-08T11:44:24.633Z,96551.59
2022-12-08T11:45:31.481Z,96552.44
2022-12-08T11:46:59.682Z,96547.53
2022-12-08T11:48:17.965Z,96551.66
2022-12-08T11:49:20.657Z,96544.31
2022-12-08T11:50:45.704Z,96548.63
2022-12-08T11:51:54.782Z,96544.50
2022-12-08T11:52:58.416Z,96549.16
2022-12-08T11:54:33.969Z,96542.66
2022-12-08T11:55:45.205Z,96542.75
2022-12-08T11:56:54.625Z,96544.44
2022-12-08T11:58:00.467Z,96536.84
2022-12-08T11:59:17.771Z,96549.13
2022-12-08T12:00:19.695Z,96542.06
2022-12-08T12:01:24.147Z,96539.22
2022-12-08T12:02:29.887Z,96536.97
2022-12-08T12:03:38.917Z,96538.94
2022-12-08T12:05:04.918Z,96540.34
2022-12-08T12:06:46.649Z,96538.09
2022-12-08T12:08:06.997Z,96540.06
2022-12-08T12:09:30.577Z,96543.13
2022-12-08T12:10:51.550Z,96539.72
2022-12-08T12:12:15.742Z,96537.44
2022-12-08T12:13:17.234Z,96539.66
2022-12-08T12:14:41.663Z,96536.53
2022-12-08T12:16:02.797Z,96534.63
2022-12-08T12:17:06.275Z,96531.97
2022-12-08T12:18:26.697Z,96533.28
2022-12-08T12:19:30.331Z,96527.56
2022-12-08T12:20:56.330Z,96520.72
2022-12-08T12:21:59.991Z,96530.06
2022-12-08T12:23:13.550Z,96538.47
2022-12-08T12:24:26.127Z,96524.31
2022-12-08T12:25:29.971Z,96529.84
2022-12-08T12:26:37.262Z,96526.84
2022-12-08T12:27:41.369Z,96528.81
2022-12-08T12:28:52.679Z,96528.34
2022-12-08T12:29:59.208Z,96531.38
2022-12-08T12:31:10.045Z,96523.91
2022-12-08T12:32:12.590Z,96530.75
2022-12-08T12:33:17.630Z,96536.97
2022-12-08T12:34:24.105Z,96542.75
2022-12-08T12:35:37.451Z,96546.16
2022-12-08T12:36:48.735Z,96543.47
2022-12-08T12:37:50.357Z,96535.06
2022-12-08T12:39:01.172Z,96535.53
2022-12-08T12:40:05.813Z,96543.91
2022-12-08T12:41:09.648Z,96539.41
2022-12-08T12:42:43.292Z,96539.25
2022-12-08T12:44:09.985Z,96535.56
2022-12-08T12:45:16.178Z,96547.19
2022-12-08T12:46:23.806Z,96535.25
2022-12-08T12:47:50.885Z,96530.25
2022-12-08T12:49:33.989Z,96533.00
2022-12-08T12:50:37.060Z,96533.78
2022-12-08T12:51:41.380Z,96539.66